sensor_id;sensor_type;location;lat;lon;timestamp;P1;durP1;ratioP1;P2;durP2;ratioP2
71888;SDS011;59762;49.998;14.858;2022-10-22T00:01:31;22.20;;;8.88;;
71888;SDS011;59762;49.998;14.858;2022-10-22T00:03:57;24.17;;;7.90;;
71888;SDS011;59762;49.998;14.858;2022-10-22T00:06:23;12.45;;;6.13;;
71888;SDS011;59762;49.998;14.858;2022-10-22T00:08:49;6.85;;;4.32;;
71888;SDS011;59762;49.998;14.858;2022-10-22T00:11:16;8.35;;;5.18;;
71888;SDS011;59762;49.998;14.858;2022-10-22T00:13:43;9.38;;;4.38;;
71888;SDS011;59762;49.998;14.858;2022-10-22T00:16:10;9.88;;;4.85;;
71888;SDS011;59762;49.998;14.858;2022-10-22T00:18:36;13.00;;;5.20;;
71888;SDS011;59762;49.998;14.858;2022-10-22T00:21:02;13.23;;;5.32;;
71888;SDS011;59762;49.998;14.858;2022-10-22T00:23:29;17.80;;;5.82;;
71888;SDS011;59762;49.998;14.858;2022-10-22T00:25:54;23.38;;;10.75;;
71888;SDS011;59762;49.998;14.858;2022-10-22T00:28:20;27.65;;;12.20;;
71888;SDS011;59762;49.998;14.858;2022-10-22T00:30:46;33.38;;;13.63;;
71888;SDS011;59762;49.998;14.858;2022-10-22T00:33:12;22.92;;;10.30;;
71888;SDS011;59762;49.998;14.858;2022-10-22T00:35:37;23.10;;;9.10;;
71888;SDS011;59762;49.998;14.858;2022-10-22T00:38:03;13.50;;;9.45;;
71888;SDS011;59762;49.998;14.858;2022-10-22T00:40:29;11.50;;;6.15;;
71888;SDS011;59762;49.998;14.858;2022-10-22T00:42:54;10.73;;;4.25;;
71888;SDS011;59762;49.998;14.858;2022-10-22T00:45:24;8.93;;;4.60;;
71888;SDS011;59762;49.998;14.858;2022-10-22T00:47:55;9.10;;;5.57;;
71888;SDS011;59762;49.998;14.858;2022-10-22T00:50:37;10.77;;;5.20;;
71888;SDS011;59762;49.998;14.858;2022-10-22T00:53:05;6.63;;;4.25;;
71888;SDS011;59762;49.998;14.858;2022-10-22T00:55:37;12.88;;;5.72;;
71888;SDS011;59762;49.998;14.858;2022-10-22T00:58:04;11.20;;;5.28;;
71888;SDS011;59762;49.998;14.858;2022-10-22T01:00:30;11.05;;;5.00;;
71888;SDS011;59762;49.998;14.858;2022-10-22T01:02:56;15.65;;;6.82;;
71888;SDS011;59762;49.998;14.858;2022-10-22T01:05:22;18.27;;;7.30;;
71888;SDS011;59762;49.998;14.858;2022-10-22T01:07:49;14.27;;;6.10;;
71888;SDS011;59762;49.998;14.858;2022-10-22T01:16:09;15.55;;;6.55;;
71888;SDS011;59762;49.998;14.858;2022-10-22T01:21:31;16.17;;;7.18;;
71888;SDS011;59762;49.998;14.858;2022-10-22T01:29:40;15.52;;;5.10;;
71888;SDS011;59762;49.998;14.858;2022-10-22T01:32:14;11.57;;;5.43;;
71888;SDS011;59762;49.998;14.858;2022-10-22T01:34:44;9.82;;;5.68;;
71888;SDS011;59762;49.998;14.858;2022-10-22T01:37:13;9.90;;;5.03;;
71888;SDS011;59762;49.998;14.858;2022-10-22T01:39:42;8.50;;;4.97;;
71888;SDS011;59762;49.998;14.858;2022-10-22T01:42:11;12.80;;;5.97;;
71888;SDS011;59762;49.998;14.858;2022-10-22T01:44:38;8.55;;;5.00;;
71888;SDS011;59762;49.998;14.858;2022-10-22T01:47:22;19.77;;;4.90;;
71888;SDS011;59762;49.998;14.858;2022-10-22T01:58:38;5.80;;;3.60;;
71888;SDS011;59762;49.998;14.858;2022-10-22T02:03:39;6.28;;;3.97;;
71888;SDS011;59762;49.998;14.858;2022-10-22T02:06:12;8.27;;;4.40;;
71888;SDS011;59762;49.998;14.858;2022-10-22T02:08:41;7.55;;;3.83;;
71888;SDS011;59762;49.998;14.858;2022-10-22T02:11:07;7.05;;;3.72;;
71888;SDS011;59762;49.998;14.858;2022-10-22T02:13:38;9.05;;;5.05;;
71888;SDS011;59762;49.998;14.858;2022-10-22T02:16:07;6.00;;;3.92;;
71888;SDS011;59762;49.998;14.858;2022-10-22T02:18:36;13.55;;;5.90;;
71888;SDS011;59762;49.998;14.858;2022-10-22T02:21:04;6.78;;;3.78;;
71888;SDS011;59762;49.998;14.858;2022-10-22T02:23:31;16.63;;;5.43;;
71888;SDS011;59762;49.998;14.858;2022-10-22T02:26:18;9.93;;;4.90;;
71888;SDS011;59762;49.998;14.858;2022-10-22T02:28:53;9.10;;;4.50;;
71888;SDS011;59762;49.998;14.858;2022-10-22T02:31:25;11.50;;;5.47;;
71888;SDS011;59762;49.998;14.858;2022-10-22T02:33:55;9.60;;;4.60;;
71888;SDS011;59762;49.998;14.858;2022-10-22T02:36:25;9.38;;;4.75;;
71888;SDS011;59762;49.998;14.858;2022-10-22T02:38:50;6.97;;;4.35;;
71888;SDS011;59762;49.998;14.858;2022-10-22T02:41:17;9.90;;;6.35;;
71888;SDS011;59762;49.998;14.858;2022-10-22T02:43:47;8.40;;;4.07;;
71888;SDS011;59762;49.998;14.858;2022-10-22T02:46:15;6.72;;;3.83;;
71888;SDS011;59762;49.998;14.858;2022-10-22T02:48:41;7.32;;;4.20;;
71888;SDS011;59762;49.998;14.858;2022-10-22T02:51:07;6.22;;;4.43;;
71888;SDS011;59762;49.998;14.858;2022-10-22T02:53:32;6.35;;;3.08;;
71888;SDS011;59762;49.998;14.858;2022-10-22T02:55:58;11.48;;;5.50;;
71888;SDS011;59762;49.998;14.858;2022-10-22T02:58:24;8.82;;;5.38;;
71888;SDS011;59762;49.998;14.858;2022-10-22T03:00:50;10.55;;;5.85;;
71888;SDS011;59762;49.998;14.858;2022-10-22T03:03:15;11.25;;;4.65;;
71888;SDS011;59762;49.998;14.858;2022-10-22T03:05:41;15.25;;;5.60;;
71888;SDS011;59762;49.998;14.858;2022-10-22T03:08:06;8.85;;;4.82;;
71888;SDS011;59762;49.998;14.858;2022-10-22T03:10:32;8.63;;;4.63;;
71888;SDS011;59762;49.998;14.858;2022-10-22T03:12:57;8.60;;;4.45;;
71888;SDS011;59762;49.998;14.858;2022-10-22T03:15:23;9.55;;;5.32;;
71888;SDS011;59762;49.998;14.858;2022-10-22T03:17:49;8.55;;;5.38;;
71888;SDS011;59762;49.998;14.858;2022-10-22T03:20:14;9.57;;;4.55;;
71888;SDS011;59762;49.998;14.858;2022-10-22T03:22:40;9.60;;;5.00;;
71888;SDS011;59762;49.998;14.858;2022-10-22T03:25:09;16.67;;;7.13;;
71888;SDS011;59762;49.998;14.858;2022-10-22T03:27:40;24.77;;;8.88;;
71888;SDS011;59762;49.998;14.858;2022-10-22T03:30:08;29.30;;;10.45;;
71888;SDS011;59762;49.998;14.858;2022-10-22T03:32:34;34.80;;;9.90;;
71888;SDS011;59762;49.998;14.858;2022-10-22T03:35:00;14.05;;;4.93;;
71888;SDS011;59762;49.998;14.858;2022-10-22T03:37:25;10.07;;;5.00;;
71888;SDS011;59762;49.998;14.858;2022-10-22T03:39:52;11.13;;;5.25;;
71888;SDS011;59762;49.998;14.858;2022-10-22T03:42:19;10.68;;;6.22;;
71888;SDS011;59762;49.998;14.858;2022-10-22T03:44:45;16.25;;;7.13;;
71888;SDS011;59762;49.998;14.858;2022-10-22T03:47:11;18.88;;;7.78;;
71888;SDS011;59762;49.998;14.858;2022-10-22T03:49:37;14.05;;;7.00;;
71888;SDS011;59762;49.998;14.858;2022-10-22T03:52:10;12.18;;;5.40;;
71888;SDS011;59762;49.998;14.858;2022-10-22T03:54:37;9.35;;;4.90;;
71888;SDS011;59762;49.998;14.858;2022-10-22T03:57:04;14.68;;;5.82;;
71888;SDS011;59762;49.998;14.858;2022-10-22T03:59:42;14.15;;;5.78;;
71888;SDS011;59762;49.998;14.858;2022-10-22T04:02:08;23.02;;;7.65;;
71888;SDS011;59762;49.998;14.858;2022-10-22T04:04:35;21.92;;;9.27;;
71888;SDS011;59762;49.998;14.858;2022-10-22T04:07:02;11.75;;;6.40;;
71888;SDS011;59762;49.998;14.858;2022-10-22T04:09:32;18.42;;;8.15;;
71888;SDS011;59762;49.998;14.858;2022-10-22T04:11:58;32.90;;;15.60;;
71888;SDS011;59762;49.998;14.858;2022-10-22T04:14:24;34.47;;;15.65;;
71888;SDS011;59762;49.998;14.858;2022-10-22T04:16:49;133.90;;;58.55;;
71888;SDS011;59762;49.998;14.858;2022-10-22T04:19:15;89.50;;;33.78;;
71888;SDS011;59762;49.998;14.858;2022-10-22T04:21:40;137.13;;;54.50;;
71888;SDS011;59762;49.998;14.858;2022-10-22T04:24:06;152.98;;;54.97;;
71888;SDS011;59762;49.998;14.858;2022-10-22T04:26:32;183.10;;;69.70;;
71888;SDS011;59762;49.998;14.858;2022-10-22T04:28:58;197.85;;;77.18;;
71888;SDS011;59762;49.998;14.858;2022-10-22T04:31:24;121.65;;;51.50;;
71888;SDS011;59762;49.998;14.858;2022-10-22T04:33:53;177.10;;;70.78;;
71888;SDS011;59762;49.998;14.858;2022-10-22T04:36:20;135.15;;;56.88;;
71888;SDS011;59762;49.998;14.858;2022-10-22T04:38:46;87.55;;;44.33;;
71888;SDS011;59762;49.998;14.858;2022-10-22T04:41:17;63.38;;;29.67;;
71888;SDS011;59762;49.998;14.858;2022-10-22T04:43:45;42.58;;;22.30;;
71888;SDS011;59762;49.998;14.858;2022-10-22T04:46:11;36.33;;;20.38;;
71888;SDS011;59762;49.998;14.858;2022-10-22T04:48:39;63.70;;;29.40;;
71888;SDS011;59762;49.998;14.858;2022-10-22T04:51:07;57.92;;;24.50;;
71888;SDS011;59762;49.998;14.858;2022-10-22T04:53:35;47.15;;;20.58;;
71888;SDS011;59762;49.998;14.858;2022-10-22T04:56:08;43.28;;;15.80;;
71888;SDS011;59762;49.998;14.858;2022-10-22T04:58:45;32.90;;;14.18;;
71888;SDS011;59762;49.998;14.858;2022-10-22T05:01:46;25.98;;;10.52;;
71888;SDS011;59762;49.998;14.858;2022-10-22T05:04:06;25.50;;;10.10;;
71888;SDS011;59762;49.998;14.858;2022-10-22T05:06:34;19.77;;;8.95;;
71888;SDS011;59762;49.998;14.858;2022-10-22T05:09:02;14.10;;;7.72;;
71888;SDS011;59762;49.998;14.858;2022-10-22T05:11:31;23.58;;;10.23;;
71888;SDS011;59762;49.998;14.858;2022-10-22T05:13:59;14.38;;;7.03;;
71888;SDS011;59762;49.998;14.858;2022-10-22T05:16:27;8.10;;;5.43;;
71888;SDS011;59762;49.998;14.858;2022-10-22T05:18:54;6.93;;;3.78;;
71888;SDS011;59762;49.998;14.858;2022-10-22T05:21:20;5.05;;;3.33;;
71888;SDS011;59762;49.998;14.858;2022-10-22T05:23:46;2.67;;;2.05;;
71888;SDS011;59762;49.998;14.858;2022-10-22T05:26:14;4.55;;;1.73;;
71888;SDS011;59762;49.998;14.858;2022-10-22T05:28:41;9.88;;;1.85;;
71888;SDS011;59762;49.998;14.858;2022-10-22T05:31:07;2.78;;;2.55;;
71888;SDS011;59762;49.998;14.858;2022-10-22T05:33:34;2.33;;;1.45;;
71888;SDS011;59762;49.998;14.858;2022-10-22T05:36:00;0.73;;;0.73;;
71888;SDS011;59762;49.998;14.858;2022-10-22T05:38:27;2.30;;;1.73;;
71888;SDS011;59762;49.998;14.858;2022-10-22T05:41:00;2.80;;;2.15;;
71888;SDS011;59762;49.998;14.858;2022-10-22T05:43:25;4.75;;;2.20;;
71888;SDS011;59762;49.998;14.858;2022-10-22T05:45:52;1.92;;;0.77;;
71888;SDS011;59762;49.998;14.858;2022-10-22T05:48:17;6.55;;;2.50;;
71888;SDS011;59762;49.998;14.858;2022-10-22T05:50:43;3.55;;;2.25;;
71888;SDS011;59762;49.998;14.858;2022-10-22T05:53:10;2.80;;;2.30;;
71888;SDS011;59762;49.998;14.858;2022-10-22T05:55:36;3.00;;;1.88;;
71888;SDS011;59762;49.998;14.858;2022-10-22T05:58:03;4.20;;;3.15;;
71888;SDS011;59762;49.998;14.858;2022-10-22T06:00:29;11.77;;;6.43;;
71888;SDS011;59762;49.998;14.858;2022-10-22T06:02:55;10.68;;;3.72;;
71888;SDS011;59762;49.998;14.858;2022-10-22T06:05:20;4.90;;;3.03;;
71888;SDS011;59762;49.998;14.858;2022-10-22T06:07:46;1.52;;;1.27;;
71888;SDS011;59762;49.998;14.858;2022-10-22T06:10:16;5.22;;;3.53;;
71888;SDS011;59762;49.998;14.858;2022-10-22T06:12:43;13.27;;;3.90;;
71888;SDS011;59762;49.998;14.858;2022-10-22T06:15:11;6.70;;;4.00;;
71888;SDS011;59762;49.998;14.858;2022-10-22T06:17:38;8.68;;;4.28;;
71888;SDS011;59762;49.998;14.858;2022-10-22T06:20:04;8.18;;;3.55;;
71888;SDS011;59762;49.998;14.858;2022-10-22T06:22:30;3.28;;;3.00;;
71888;SDS011;59762;49.998;14.858;2022-10-22T06:24:56;7.90;;;3.00;;
71888;SDS011;59762;49.998;14.858;2022-10-22T06:27:21;6.88;;;2.70;;
71888;SDS011;59762;49.998;14.858;2022-10-22T06:29:47;20.23;;;4.72;;
71888;SDS011;59762;49.998;14.858;2022-10-22T06:32:13;5.88;;;3.05;;
71888;SDS011;59762;49.998;14.858;2022-10-22T06:34:38;6.13;;;2.55;;
71888;SDS011;59762;49.998;14.858;2022-10-22T06:37:04;2.03;;;1.92;;
71888;SDS011;59762;49.998;14.858;2022-10-22T06:39:30;2.97;;;2.17;;
71888;SDS011;59762;49.998;14.858;2022-10-22T06:41:55;11.90;;;4.78;;
71888;SDS011;59762;49.998;14.858;2022-10-22T06:44:21;11.20;;;3.00;;
71888;SDS011;59762;49.998;14.858;2022-10-22T06:46:50;4.20;;;3.08;;
71888;SDS011;59762;49.998;14.858;2022-10-22T06:49:16;6.30;;;1.98;;
71888;SDS011;59762;49.998;14.858;2022-10-22T06:51:42;2.22;;;2.00;;
71888;SDS011;59762;49.998;14.858;2022-10-22T06:54:08;6.40;;;3.17;;
71888;SDS011;59762;49.998;14.858;2022-10-22T06:56:34;4.15;;;2.13;;
71888;SDS011;59762;49.998;14.858;2022-10-22T06:59:00;5.63;;;2.10;;
71888;SDS011;59762;49.998;14.858;2022-10-22T07:01:27;5.63;;;2.10;;
71888;SDS011;59762;49.998;14.858;2022-10-22T07:03:55;4.07;;;2.10;;
71888;SDS011;59762;49.998;14.858;2022-10-22T07:06:21;3.65;;;2.95;;
71888;SDS011;59762;49.998;14.858;2022-10-22T07:08:49;7.78;;;2.65;;
71888;SDS011;59762;49.998;14.858;2022-10-22T07:11:16;10.00;;;5.53;;
71888;SDS011;59762;49.998;14.858;2022-10-22T07:13:44;7.18;;;3.88;;
71888;SDS011;59762;49.998;14.858;2022-10-22T07:16:10;4.28;;;3.20;;
71888;SDS011;59762;49.998;14.858;2022-10-22T07:18:37;7.30;;;2.92;;
71888;SDS011;59762;49.998;14.858;2022-10-22T07:21:03;23.23;;;5.55;;
71888;SDS011;59762;49.998;14.858;2022-10-22T07:23:30;5.60;;;2.60;;
71888;SDS011;59762;49.998;14.858;2022-10-22T07:25:56;2.33;;;1.77;;
71888;SDS011;59762;49.998;14.858;2022-10-22T07:28:22;13.88;;;7.13;;
71888;SDS011;59762;49.998;14.858;2022-10-22T07:30:48;5.60;;;2.58;;
71888;SDS011;59762;49.998;14.858;2022-10-22T07:33:14;5.93;;;2.45;;
71888;SDS011;59762;49.998;14.858;2022-10-22T07:35:39;2.45;;;1.75;;
71888;SDS011;59762;49.998;14.858;2022-10-22T07:38:06;2.35;;;1.48;;
71888;SDS011;59762;49.998;14.858;2022-10-22T07:40:33;2.42;;;1.25;;
71888;SDS011;59762;49.998;14.858;2022-10-22T07:42:59;2.35;;;1.27;;
71888;SDS011;59762;49.998;14.858;2022-10-22T07:45:25;1.33;;;1.23;;
71888;SDS011;59762;49.998;14.858;2022-10-22T07:47:51;2.83;;;1.55;;
71888;SDS011;59762;49.998;14.858;2022-10-22T07:50:16;1.17;;;1.00;;
71888;SDS011;59762;49.998;14.858;2022-10-22T07:52:43;8.50;;;3.42;;
71888;SDS011;59762;49.998;14.858;2022-10-22T07:55:09;2.50;;;1.77;;
71888;SDS011;59762;49.998;14.858;2022-10-22T07:59:42;8.82;;;1.92;;
71888;SDS011;59762;49.998;14.858;2022-10-22T08:02:08;3.53;;;2.05;;
71888;SDS011;59762;49.998;14.858;2022-10-22T08:04:35;6.10;;;2.30;;
71888;SDS011;59762;49.998;14.858;2022-10-22T08:07:01;7.82;;;2.53;;
71888;SDS011;59762;49.998;14.858;2022-10-22T08:09:26;6.28;;;1.80;;
71888;SDS011;59762;49.998;14.858;2022-10-22T08:11:52;5.30;;;2.17;;
71888;SDS011;59762;49.998;14.858;2022-10-22T08:14:18;11.13;;;2.47;;
71888;SDS011;59762;49.998;14.858;2022-10-22T08:16:44;2.53;;;2.10;;
71888;SDS011;59762;49.998;14.858;2022-10-22T08:19:09;3.20;;;2.28;;
71888;SDS011;59762;49.998;14.858;2022-10-22T08:21:35;2.97;;;2.15;;
71888;SDS011;59762;49.998;14.858;2022-10-22T08:24:00;4.60;;;2.83;;
71888;SDS011;59762;49.998;14.858;2022-10-22T08:26:26;6.45;;;2.65;;
71888;SDS011;59762;49.998;14.858;2022-10-22T08:28:51;8.55;;;2.45;;
71888;SDS011;59762;49.998;14.858;2022-10-22T08:31:17;8.50;;;3.10;;
71888;SDS011;59762;49.998;14.858;2022-10-22T08:33:43;6.93;;;2.83;;
71888;SDS011;59762;49.998;14.858;2022-10-22T08:36:08;1.63;;;1.23;;
71888;SDS011;59762;49.998;14.858;2022-10-22T08:38:34;3.92;;;2.05;;
71888;SDS011;59762;49.998;14.858;2022-10-22T08:41:05;2.35;;;1.65;;
71888;SDS011;59762;49.998;14.858;2022-10-22T08:46:36;3.92;;;2.42;;
71888;SDS011;59762;49.998;14.858;2022-10-22T08:52:08;6.03;;;2.80;;
71888;SDS011;59762;49.998;14.858;2022-10-22T08:54:46;11.65;;;3.53;;
71888;SDS011;59762;49.998;14.858;2022-10-22T08:57:26;3.53;;;2.22;;
71888;SDS011;59762;49.998;14.858;2022-10-22T09:00:10;3.13;;;2.08;;
71888;SDS011;59762;49.998;14.858;2022-10-22T09:08:18;18.58;;;6.10;;
71888;SDS011;59762;49.998;14.858;2022-10-22T09:10:45;9.30;;;3.85;;
71888;SDS011;59762;49.998;14.858;2022-10-22T09:13:15;2.25;;;0.85;;
71888;SDS011;59762;49.998;14.858;2022-10-22T09:15:45;9.80;;;3.03;;
71888;SDS011;59762;49.998;14.858;2022-10-22T09:18:26;23.33;;;5.63;;
71888;SDS011;59762;49.998;14.858;2022-10-22T09:23:51;13.88;;;5.88;;
71888;SDS011;59762;49.998;14.858;2022-10-22T09:26:35;8.93;;;2.97;;
71888;SDS011;59762;49.998;14.858;2022-10-22T09:29:03;4.10;;;1.85;;
71888;SDS011;59762;49.998;14.858;2022-10-22T09:31:30;12.52;;;3.72;;
71888;SDS011;59762;49.998;14.858;2022-10-22T09:33:56;7.95;;;3.58;;
71888;SDS011;59762;49.998;14.858;2022-10-22T09:36:23;3.50;;;1.95;;
71888;SDS011;59762;49.998;14.858;2022-10-22T09:38:52;3.63;;;1.80;;
71888;SDS011;59762;49.998;14.858;2022-10-22T09:41:19;7.82;;;3.03;;
71888;SDS011;59762;49.998;14.858;2022-10-22T09:43:47;7.97;;;1.98;;
71888;SDS011;59762;49.998;14.858;2022-10-22T09:46:22;2.97;;;1.63;;
71888;SDS011;59762;49.998;14.858;2022-10-22T09:49:04;10.68;;;3.00;;
71888;SDS011;59762;49.998;14.858;2022-10-22T09:51:46;17.90;;;5.60;;
71888;SDS011;59762;49.998;14.858;2022-10-22T09:54:20;1.33;;;1.23;;
71888;SDS011;59762;49.998;14.858;2022-10-22T09:56:51;15.55;;;5.25;;
71888;SDS011;59762;49.998;14.858;2022-10-22T09:59:23;2.15;;;1.38;;
71888;SDS011;59762;49.998;14.858;2022-10-22T10:02:26;2.83;;;1.88;;
71888;SDS011;59762;49.998;14.858;2022-10-22T10:04:47;4.43;;;1.83;;
71888;SDS011;59762;49.998;14.858;2022-10-22T10:07:19;17.05;;;5.05;;
71888;SDS011;59762;49.998;14.858;2022-10-22T10:09:45;3.17;;;2.35;;
71888;SDS011;59762;49.998;14.858;2022-10-22T10:17:30;12.93;;;5.13;;
71888;SDS011;59762;49.998;14.858;2022-10-22T10:33:49;2.33;;;2.08;;
71888;SDS011;59762;49.998;14.858;2022-10-22T10:39:09;5.18;;;1.73;;
71888;SDS011;59762;49.998;14.858;2022-10-22T10:41:45;10.48;;;3.30;;
71888;SDS011;59762;49.998;14.858;2022-10-22T10:44:21;10.43;;;7.65;;
71888;SDS011;59762;49.998;14.858;2022-10-22T10:47:11;6.82;;;3.53;;
71888;SDS011;59762;49.998;14.858;2022-10-22T10:53:20;4.68;;;1.40;;
71888;SDS011;59762;49.998;14.858;2022-10-22T11:07:06;7.30;;;2.53;;
71888;SDS011;59762;49.998;14.858;2022-10-22T11:09:40;23.13;;;7.05;;
71888;SDS011;59762;49.998;14.858;2022-10-22T11:12:18;2.70;;;1.92;;
71888;SDS011;59762;49.998;14.858;2022-10-22T11:15:06;38.80;;;9.55;;
71888;SDS011;59762;49.998;14.858;2022-10-22T11:17:38;4.20;;;2.85;;
71888;SDS011;59762;49.998;14.858;2022-10-22T11:23:07;2.90;;;2.47;;
71888;SDS011;59762;49.998;14.858;2022-10-22T11:25:47;4.47;;;2.55;;
71888;SDS011;59762;49.998;14.858;2022-10-22T11:31:15;1.27;;;1.23;;
71888;SDS011;59762;49.998;14.858;2022-10-22T11:33:52;1.85;;;1.55;;
71888;SDS011;59762;49.998;14.858;2022-10-22T11:36:22;1.15;;;1.05;;
71888;SDS011;59762;49.998;14.858;2022-10-22T11:38:51;1.60;;;1.50;;
71888;SDS011;59762;49.998;14.858;2022-10-22T11:41:18;0.98;;;0.57;;
71888;SDS011;59762;49.998;14.858;2022-10-22T11:46:39;1.63;;;1.10;;
71888;SDS011;59762;49.998;14.858;2022-10-22T11:49:23;1.20;;;0.82;;
71888;SDS011;59762;49.998;14.858;2022-10-22T11:52:26;1.45;;;1.35;;
71888;SDS011;59762;49.998;14.858;2022-10-22T11:54:57;3.83;;;1.67;;
71888;SDS011;59762;49.998;14.858;2022-10-22T11:57:27;3.67;;;1.48;;
71888;SDS011;59762;49.998;14.858;2022-10-22T12:00:08;0.93;;;0.93;;
71888;SDS011;59762;49.998;14.858;2022-10-22T12:08:45;1.33;;;1.20;;
71888;SDS011;59762;49.998;14.858;2022-10-22T12:16:47;5.88;;;2.33;;
71888;SDS011;59762;49.998;14.858;2022-10-22T12:19:23;2.05;;;1.58;;
71888;SDS011;59762;49.998;14.858;2022-10-22T12:21:56;1.67;;;0.63;;
71888;SDS011;59762;49.998;14.858;2022-10-22T12:24:24;3.72;;;2.88;;
71888;SDS011;59762;49.998;14.858;2022-10-22T12:26:53;6.90;;;3.40;;
71888;SDS011;59762;49.998;14.858;2022-10-22T12:29:20;2.30;;;2.10;;
71888;SDS011;59762;49.998;14.858;2022-10-22T12:31:50;5.30;;;2.88;;
71888;SDS011;59762;49.998;14.858;2022-10-22T12:34:18;6.57;;;2.35;;
71888;SDS011;59762;49.998;14.858;2022-10-22T12:36:48;3.35;;;2.63;;
71888;SDS011;59762;49.998;14.858;2022-10-22T12:39:16;5.00;;;2.17;;
71888;SDS011;59762;49.998;14.858;2022-10-22T12:41:44;2.17;;;1.35;;
71888;SDS011;59762;49.998;14.858;2022-10-22T12:44:11;2.92;;;1.77;;
71888;SDS011;59762;49.998;14.858;2022-10-22T12:46:38;7.60;;;1.80;;
71888;SDS011;59762;49.998;14.858;2022-10-22T12:49:07;1.05;;;0.90;;
71888;SDS011;59762;49.998;14.858;2022-10-22T12:51:38;0.45;;;0.38;;
71888;SDS011;59762;49.998;14.858;2022-10-22T12:54:06;1.75;;;1.13;;
71888;SDS011;59762;49.998;14.858;2022-10-22T12:56:35;7.70;;;2.35;;
71888;SDS011;59762;49.998;14.858;2022-10-22T12:59:04;1.15;;;0.70;;
71888;SDS011;59762;49.998;14.858;2022-10-22T13:01:38;1.48;;;1.25;;
71888;SDS011;59762;49.998;14.858;2022-10-22T13:04:17;0.93;;;0.77;;
71888;SDS011;59762;49.998;14.858;2022-10-22T13:07:18;1.30;;;1.20;;
71888;SDS011;59762;49.998;14.858;2022-10-22T13:09:45;1.15;;;0.55;;
71888;SDS011;59762;49.998;14.858;2022-10-22T13:12:36;1.08;;;0.55;;
71888;SDS011;59762;49.998;14.858;2022-10-22T13:15:20;0.90;;;0.80;;
71888;SDS011;59762;49.998;14.858;2022-10-22T13:17:47;0.55;;;0.55;;
71888;SDS011;59762;49.998;14.858;2022-10-22T13:20:20;1.30;;;1.10;;
71888;SDS011;59762;49.998;14.858;2022-10-22T13:22:54;1.42;;;0.88;;
71888;SDS011;59762;49.998;14.858;2022-10-22T13:25:31;1.20;;;0.95;;
71888;SDS011;59762;49.998;14.858;2022-10-22T13:30:50;0.68;;;0.68;;
71888;SDS011;59762;49.998;14.858;2022-10-22T13:36:04;4.10;;;1.05;;
71888;SDS011;59762;49.998;14.858;2022-10-22T13:38:30;0.68;;;0.68;;
71888;SDS011;59762;49.998;14.858;2022-10-22T13:40:57;0.45;;;0.45;;
71888;SDS011;59762;49.998;14.858;2022-10-22T13:43:23;1.55;;;0.85;;
71888;SDS011;59762;49.998;14.858;2022-10-22T13:45:51;3.47;;;2.30;;
71888;SDS011;59762;49.998;14.858;2022-10-22T13:48:19;0.60;;;0.40;;
71888;SDS011;59762;49.998;14.858;2022-10-22T13:50:48;0.50;;;0.50;;
71888;SDS011;59762;49.998;14.858;2022-10-22T13:53:15;0.45;;;0.45;;
71888;SDS011;59762;49.998;14.858;2022-10-22T13:55:44;0.40;;;0.40;;
71888;SDS011;59762;49.998;14.858;2022-10-22T13:58:14;1.65;;;0.68;;
71888;SDS011;59762;49.998;14.858;2022-10-22T14:00:44;0.50;;;0.50;;
71888;SDS011;59762;49.998;14.858;2022-10-22T14:03:15;2.33;;;2.13;;
71888;SDS011;59762;49.998;14.858;2022-10-22T14:05:47;0.40;;;0.40;;
71888;SDS011;59762;49.998;14.858;2022-10-22T14:08:17;1.00;;;0.63;;
71888;SDS011;59762;49.998;14.858;2022-10-22T14:10:44;0.95;;;0.70;;
71888;SDS011;59762;49.998;14.858;2022-10-22T14:13:14;1.55;;;1.23;;
71888;SDS011;59762;49.998;14.858;2022-10-22T14:15:41;0.30;;;0.30;;
71888;SDS011;59762;49.998;14.858;2022-10-22T14:18:07;0.52;;;0.52;;
71888;SDS011;59762;49.998;14.858;2022-10-22T14:20:39;0.32;;;0.32;;
71888;SDS011;59762;49.998;14.858;2022-10-22T14:23:18;0.50;;;0.50;;
71888;SDS011;59762;49.998;14.858;2022-10-22T14:25:45;0.82;;;0.82;;
71888;SDS011;59762;49.998;14.858;2022-10-22T14:28:11;4.15;;;1.77;;
71888;SDS011;59762;49.998;14.858;2022-10-22T14:30:37;4.05;;;2.40;;
71888;SDS011;59762;49.998;14.858;2022-10-22T14:33:14;8.88;;;4.43;;
71888;SDS011;59762;49.998;14.858;2022-10-22T14:35:42;6.93;;;3.30;;
71888;SDS011;59762;49.998;14.858;2022-10-22T14:38:08;10.88;;;4.25;;
71888;SDS011;59762;49.998;14.858;2022-10-22T14:40:34;7.32;;;2.70;;
71888;SDS011;59762;49.998;14.858;2022-10-22T14:43:02;10.10;;;4.05;;
71888;SDS011;59762;49.998;14.858;2022-10-22T14:45:28;6.13;;;2.88;;
71888;SDS011;59762;49.998;14.858;2022-10-22T14:47:54;5.38;;;3.60;;
71888;SDS011;59762;49.998;14.858;2022-10-22T14:50:20;2.63;;;2.28;;
71888;SDS011;59762;49.998;14.858;2022-10-22T14:52:45;8.95;;;2.90;;
71888;SDS011;59762;49.998;14.858;2022-10-22T14:55:13;7.47;;;3.85;;
71888;SDS011;59762;49.998;14.858;2022-10-22T14:57:40;8.75;;;3.50;;
71888;SDS011;59762;49.998;14.858;2022-10-22T15:00:07;6.35;;;3.15;;
71888;SDS011;59762;49.998;14.858;2022-10-22T15:02:35;3.97;;;1.67;;
71888;SDS011;59762;49.998;14.858;2022-10-22T15:05:01;4.07;;;2.30;;
71888;SDS011;59762;49.998;14.858;2022-10-22T15:07:27;6.57;;;3.72;;
71888;SDS011;59762;49.998;14.858;2022-10-22T15:09:53;6.45;;;2.55;;
71888;SDS011;59762;49.998;14.858;2022-10-22T15:12:19;6.47;;;2.60;;
71888;SDS011;59762;49.998;14.858;2022-10-22T15:14:47;9.55;;;2.38;;
71888;SDS011;59762;49.998;14.858;2022-10-22T15:17:13;10.20;;;4.07;;
71888;SDS011;59762;49.998;14.858;2022-10-22T15:19:39;8.30;;;4.57;;
71888;SDS011;59762;49.998;14.858;2022-10-22T15:22:05;9.25;;;4.75;;
71888;SDS011;59762;49.998;14.858;2022-10-22T15:24:31;20.52;;;9.30;;
71888;SDS011;59762;49.998;14.858;2022-10-22T15:26:57;17.55;;;5.53;;
71888;SDS011;59762;49.998;14.858;2022-10-22T15:29:22;16.92;;;9.77;;
71888;SDS011;59762;49.998;14.858;2022-10-22T15:31:50;19.48;;;8.60;;
71888;SDS011;59762;49.998;14.858;2022-10-22T15:34:18;15.00;;;6.40;;
71888;SDS011;59762;49.998;14.858;2022-10-22T15:36:49;14.15;;;7.38;;
71888;SDS011;59762;49.998;14.858;2022-10-22T15:39:16;5.18;;;2.83;;
71888;SDS011;59762;49.998;14.858;2022-10-22T15:41:42;11.93;;;4.07;;
71888;SDS011;59762;49.998;14.858;2022-10-22T15:44:08;11.95;;;6.35;;
71888;SDS011;59762;49.998;14.858;2022-10-22T15:46:40;17.50;;;9.45;;
71888;SDS011;59762;49.998;14.858;2022-10-22T15:49:05;19.38;;;7.63;;
71888;SDS011;59762;49.998;14.858;2022-10-22T15:51:31;11.57;;;7.70;;
71888;SDS011;59762;49.998;14.858;2022-10-22T15:53:57;6.65;;;4.13;;
71888;SDS011;59762;49.998;14.858;2022-10-22T15:56:24;9.50;;;5.22;;
71888;SDS011;59762;49.998;14.858;2022-10-22T15:58:51;4.18;;;2.78;;
71888;SDS011;59762;49.998;14.858;2022-10-22T16:01:22;1.17;;;1.15;;
71888;SDS011;59762;49.998;14.858;2022-10-22T16:03:49;4.13;;;2.45;;
71888;SDS011;59762;49.998;14.858;2022-10-22T16:06:17;10.13;;;3.58;;
71888;SDS011;59762;49.998;14.858;2022-10-22T16:08:43;10.80;;;3.78;;
71888;SDS011;59762;49.998;14.858;2022-10-22T16:11:09;7.57;;;1.95;;
71888;SDS011;59762;49.998;14.858;2022-10-22T16:13:35;11.77;;;4.72;;
71888;SDS011;59762;49.998;14.858;2022-10-22T16:16:05;10.35;;;3.28;;
71888;SDS011;59762;49.998;14.858;2022-10-22T16:18:32;18.20;;;6.15;;
71888;SDS011;59762;49.998;14.858;2022-10-22T16:20:57;22.42;;;9.55;;
71888;SDS011;59762;49.998;14.858;2022-10-22T16:23:23;16.27;;;7.18;;